createdAt,value
2018-12-06T00:00:30.581Z,12.63
2018-12-06T00:01:04.875Z,15.50
2018-12-06T00:01:38.626Z,16.02
2018-12-06T00:02:13.598Z,12.25
2018-12-06T00:02:47.640Z,15.05
2018-12-06T00:03:21.649Z,13.45
2018-12-06T00:03:55.574Z,12.73
2018-12-06T00:04:29.554Z,11.65
2018-12-06T00:05:04.770Z,13.58
2018-12-06T00:05:38.779Z,12.98
2018-12-06T00:06:12.635Z,12.55
2018-12-06T00:06:46.674Z,13.43
2018-12-06T00:07:20.602Z,16.35
2018-12-06T00:08:06.095Z,14.23
2018-12-06T00:08:40.539Z,13.95
2018-12-06T00:09:14.518Z,13.13
2018-12-06T00:09:48.530Z,13.85
2018-12-06T00:10:22.374Z,13.15
2018-12-06T00:10:56.343Z,12.82
2018-12-06T00:11:30.374Z,13.32
2018-12-06T00:12:04.277Z,15.95
2018-12-06T00:12:38.050Z,13.55
2018-12-06T00:13:12.030Z,13.58
2018-12-06T00:13:45.993Z,13.68
2018-12-06T00:14:19.956Z,12.82
2018-12-06T00:15:04.263Z,12.68
2018-12-06T00:15:38.274Z,15.13
2018-12-06T00:16:12.015Z,13.62
2018-12-06T00:16:54.150Z,13.68
2018-12-06T00:17:28.582Z,13.43
2018-12-06T00:18:02.424Z,13.43
2018-12-06T00:18:36.223Z,15.00
2018-12-06T00:19:10.198Z,14.18
2018-12-06T00:19:44.162Z,12.20
2018-12-06T00:20:18.003Z,13.70
2018-12-06T00:20:52.493Z,14.73
2018-12-06T00:21:27.352Z,12.25
2018-12-06T00:22:01.470Z,12.80
2018-12-06T00:22:35.337Z,13.30
2018-12-06T00:23:09.509Z,15.43
2018-12-06T00:23:43.253Z,13.75
2018-12-06T00:24:17.024Z,13.53
2018-12-06T00:24:50.993Z,13.13
2018-12-06T00:25:25.011Z,14.20
2018-12-06T00:25:58.941Z,14.98
2018-12-06T00:26:34.690Z,11.33
2018-12-06T00:27:08.742Z,15.08
2018-12-06T00:27:42.721Z,13.98
2018-12-06T00:28:16.622Z,15.25
2018-12-06T00:28:50.420Z,13.65
2018-12-06T00:29:24.293Z,14.40
2018-12-06T00:30:09.666Z,13.62
2018-12-06T00:30:43.681Z,12.25
2018-12-06T00:31:17.671Z,12.10
2018-12-06T00:31:51.650Z,12.13
2018-12-06T00:32:25.595Z,13.83
2018-12-06T00:32:59.603Z,15.70
2018-12-06T00:33:33.538Z,13.55
2018-12-06T00:34:07.506Z,13.93
2018-12-06T00:34:42.186Z,13.22
2018-12-06T00:35:16.122Z,12.40
2018-12-06T00:35:50.167Z,13.32
2018-12-06T00:36:24.269Z,12.23
2018-12-06T00:36:58.279Z,14.90
2018-12-06T00:37:32.184Z,14.18
2018-12-06T00:38:06.720Z,12.15
2018-12-06T00:38:42.044Z,14.00
2018-12-06T00:39:16.174Z,13.62
2018-12-06T00:39:50.715Z,13.83
2018-12-06T00:40:24.686Z,13.95
2018-12-06T00:40:58.774Z,14.58
2018-12-06T00:41:32.770Z,15.20
2018-12-06T00:42:06.763Z,14.80
2018-12-06T00:42:40.722Z,14.40
2018-12-06T00:43:14.576Z,13.70
2018-12-06T00:43:48.529Z,13.48
2018-12-06T00:44:22.412Z,17.02
2018-12-06T00:45:01.095Z,14.05
2018-12-06T00:45:42.442Z,14.85
2018-12-06T00:46:16.423Z,14.45
2018-12-06T00:46:50.492Z,14.73
2018-12-06T00:47:24.906Z,13.45
2018-12-06T00:47:58.851Z,14.40
2018-12-06T00:48:32.747Z,12.98
2018-12-06T00:49:06.644Z,13.18
2018-12-06T00:49:40.540Z,12.88
2018-12-06T00:50:14.437Z,12.63
2018-12-06T00:50:48.302Z,15.35
2018-12-06T00:51:22.255Z,17.00
2018-12-06T00:51:56.423Z,15.75
2018-12-06T00:52:30.119Z,13.45
2018-12-06T00:53:03.961Z,15.05
2018-12-06T00:53:38.053Z,16.10
2018-12-06T00:54:12.050Z,14.28
2018-12-06T00:54:45.902Z,12.53
2018-12-06T00:55:21.000Z,13.30
2018-12-06T00:55:55.364Z,15.53
2018-12-06T00:56:29.366Z,13.45
2018-12-06T00:57:03.278Z,13.65
2018-12-06T00:57:37.313Z,15.40
2018-12-06T00:58:11.328Z,14.80
2018-12-06T00:58:45.207Z,11.88
2018-12-06T00:59:19.418Z,13.55
2018-12-06T00:59:53.741Z,12.63
2018-12-06T01:00:27.936Z,15.15
2018-12-06T01:01:01.980Z,13.43
2018-12-06T01:01:35.874Z,14.23
2018-12-06T01:02:09.946Z,15.28
2018-12-06T01:02:43.802Z,13.05
2018-12-06T01:03:17.694Z,14.55
2018-12-06T01:03:52.489Z,13.28
2018-12-06T01:04:26.309Z,13.90
2018-12-06T01:05:00.327Z,13.08
2018-12-06T01:05:34.820Z,12.90
2018-12-06T01:06:08.715Z,16.02
2018-12-06T01:06:42.543Z,15.03
2018-12-06T01:07:16.311Z,14.33
2018-12-06T01:07:50.290Z,15.45
2018-12-06T01:08:24.629Z,13.62
2018-12-06T01:08:58.703Z,13.78
2018-12-06T01:09:32.697Z,13.88
2018-12-06T01:10:06.907Z,13.28
2018-12-06T01:10:40.900Z,15.15
2018-12-06T01:11:15.137Z,17.40
2018-12-06T01:11:48.980Z,14.58
2018-12-06T01:12:23.260Z,13.32
2018-12-06T01:12:57.887Z,15.18
2018-12-06T01:13:31.773Z,14.58
2018-12-06T01:14:05.546Z,14.73
2018-12-06T01:14:41.536Z,14.95
2018-12-06T01:15:15.333Z,19.67
2018-12-06T01:15:49.142Z,13.68
2018-12-06T01:16:22.782Z,16.97
2018-12-06T01:16:56.660Z,14.28
2018-12-06T01:17:30.691Z,15.58
2018-12-06T01:18:04.713Z,14.75
2018-12-06T01:18:38.714Z,15.80
2018-12-06T01:19:12.498Z,16.50
2018-12-06T01:19:46.302Z,17.27
2018-12-06T01:20:20.072Z,18.62
2018-12-06T01:20:53.765Z,16.35
2018-12-06T01:21:27.580Z,16.85
2018-12-06T01:22:01.466Z,15.53
2018-12-06T01:22:35.502Z,17.15
2018-12-06T01:23:09.374Z,15.70
2018-12-06T01:23:43.272Z,17.73
2018-12-06T01:24:17.285Z,15.55
2018-12-06T01:24:51.145Z,19.95
2018-12-06T01:25:24.993Z,16.85
2018-12-06T01:25:58.830Z,17.12
2018-12-06T01:26:32.603Z,15.58
2018-12-06T01:27:06.579Z,14.58
2018-12-06T01:27:40.318Z,14.40
2018-12-06T01:28:14.172Z,16.02
2018-12-06T01:28:48.053Z,15.60
2018-12-06T01:29:22.175Z,16.80
2018-12-06T01:29:56.249Z,16.55
2018-12-06T01:30:30.375Z,15.88
2018-12-06T01:31:04.166Z,16.85
2018-12-06T01:31:38.074Z,15.95
2018-12-06T01:32:11.925Z,18.00
2018-12-06T01:32:45.758Z,15.60
2018-12-06T01:33:19.526Z,16.12
2018-12-06T01:33:53.948Z,15.90
2018-12-06T01:34:27.674Z,16.10
2018-12-06T01:35:01.667Z,17.50
2018-12-06T01:35:35.712Z,17.15
2018-12-06T01:36:10.458Z,18.60
2018-12-06T01:36:44.282Z,17.37
2018-12-06T01:37:18.223Z,16.77
2018-12-06T01:37:51.924Z,15.48
2018-12-06T01:38:25.811Z,17.77
2018-12-06T01:38:59.596Z,16.80
2018-12-06T01:39:33.371Z,17.75
2018-12-06T01:40:07.513Z,16.02
2018-12-06T01:40:41.323Z,18.42
2018-12-06T01:41:15.117Z,15.45
2018-12-06T01:41:48.906Z,17.05
2018-12-06T01:42:22.872Z,17.05
2018-12-06T01:42:56.845Z,17.73
2018-12-06T01:43:30.665Z,18.25
2018-12-06T01:44:04.667Z,15.43
2018-12-06T01:44:38.524Z,14.83
2018-12-06T01:45:12.282Z,17.45
2018-12-06T01:45:46.094Z,16.42
2018-12-06T01:46:20.071Z,15.83
2018-12-06T01:46:54.137Z,17.32
2018-12-06T01:47:28.119Z,18.80
2018-12-06T01:48:01.898Z,15.95
2018-12-06T01:48:36.298Z,17.62
2018-12-06T01:49:10.310Z,15.25
2018-12-06T01:49:44.173Z,19.15
2018-12-06T01:50:18.106Z,15.03
2018-12-06T01:50:51.872Z,16.50
2018-12-06T01:51:25.878Z,16.85
2018-12-06T01:51:59.715Z,17.82
2018-12-06T01:52:33.701Z,17.20
2018-12-06T01:53:07.414Z,18.95
2018-12-06T01:53:41.310Z,15.05
2018-12-06T01:54:15.183Z,18.85
2018-12-06T01:54:48.985Z,16.70
2018-12-06T01:55:22.679Z,17.65
2018-12-06T01:55:56.541Z,16.30
2018-12-06T01:56:30.405Z,16.37
2018-12-06T01:57:04.243Z,15.23
2018-12-06T01:57:38.143Z,15.40
2018-12-06T01:58:12.044Z,16.67
2018-12-06T01:58:45.990Z,17.23
2018-12-06T01:59:20.046Z,16.82
2018-12-06T01:59:53.994Z,14.98
2018-12-06T02:00:28.061Z,19.77
2018-12-06T02:01:01.859Z,17.45
2018-12-06T02:01:35.512Z,14.53
2018-12-06T02:02:09.266Z,17.80
2018-12-06T02:02:43.119Z,17.25
2018-12-06T02:03:17.069Z,15.00
2018-12-06T02:03:50.961Z,16.90
2018-12-06T02:04:24.890Z,16.48
2018-12-06T02:04:58.770Z,14.58
2018-12-06T02:05:32.786Z,14.68
2018-12-06T02:06:06.739Z,16.55
2018-12-06T02:06:40.739Z,15.32
2018-12-06T02:07:14.666Z,15.43
2018-12-06T02:07:48.469Z,16.55
2018-12-06T02:08:22.329Z,14.68
2018-12-06T02:08:56.142Z,16.07
2018-12-06T02:09:30.028Z,14.80
2018-12-06T02:10:05.623Z,13.55
2018-12-06T02:10:39.456Z,15.30
2018-12-06T02:11:13.238Z,14.30
2018-12-06T02:11:47.061Z,14.65
2018-12-06T02:12:20.806Z,15.75
2018-12-06T02:12:54.593Z,16.52
2018-12-06T02:13:28.405Z,15.95
2018-12-06T02:14:02.212Z,16.73
2018-12-06T02:14:38.183Z,15.13
2018-12-06T02:15:12.207Z,16.27
2018-12-06T02:15:46.137Z,14.63
2018-12-06T02:16:20.058Z,14.23
2018-12-06T02:17:00.961Z,17.32
2018-12-06T02:17:34.722Z,16.45
2018-12-06T02:18:08.592Z,15.95
2018-12-06T02:18:42.506Z,19.62
2018-12-06T02:19:16.342Z,15.38
2018-12-06T02:19:50.113Z,14.35
2018-12-06T02:20:24.324Z,17.27
2018-12-06T02:20:58.283Z,14.30
2018-12-06T02:21:32.248Z,14.87
2018-12-06T02:22:06.153Z,15.70
2018-12-06T02:22:39.914Z,15.28
2018-12-06T02:23:13.814Z,17.95
2018-12-06T02:23:47.602Z,15.72
2018-12-06T02:24:21.533Z,16.75
2018-12-06T02:24:55.395Z,18.25
2018-12-06T02:25:29.219Z,14.55
2018-12-06T02:26:03.450Z,16.48
2018-12-06T02:26:37.217Z,14.78
2018-12-06T02:27:11.286Z,16.67
2018-12-06T02:27:45.159Z,14.60
2018-12-06T02:28:19.136Z,14.38
2018-12-06T02:28:53.141Z,16.82
2018-12-06T02:29:31.484Z,16.12
2018-12-06T02:30:05.736Z,17.87
2018-12-06T02:30:39.552Z,14.68
2018-12-06T02:31:13.373Z,15.08
2018-12-06T02:31:47.163Z,17.17
2018-12-06T02:32:21.504Z,14.85
2018-12-06T02:32:55.481Z,14.47
2018-12-06T02:33:29.551Z,14.70
2018-12-06T02:34:03.400Z,16.40
2018-12-06T02:34:37.121Z,16.97
2018-12-06T02:35:11.036Z,17.40
2018-12-06T02:35:44.951Z,14.35
2018-12-06T02:36:18.933Z,14.80
2018-12-06T02:36:52.913Z,16.95
2018-12-06T02:37:26.831Z,16.07
2018-12-06T02:38:00.643Z,17.17
2018-12-06T02:38:34.505Z,16.77
2018-12-06T02:39:08.586Z,15.15
2018-12-06T02:39:42.528Z,16.97
2018-12-06T02:40:16.378Z,16.32
2018-12-06T02:40:50.262Z,14.90
2018-12-06T02:41:24.060Z,17.50
2018-12-06T02:41:57.994Z,16.45
2018-12-06T02:42:31.805Z,15.72
2018-12-06T02:43:05.738Z,16.70
2018-12-06T02:43:39.789Z,15.32
2018-12-06T02:44:13.465Z,17.17
2018-12-06T02:44:47.331Z,17.20
2018-12-06T02:45:21.184Z,16.12
2018-12-06T02:45:55.017Z,16.60
2018-12-06T02:46:29.071Z,15.45
2018-12-06T02:47:02.952Z,17.07
2018-12-06T02:47:36.731Z,16.30
2018-12-06T02:48:10.522Z,18.32
2018-12-06T02:48:44.482Z,16.17
2018-12-06T02:49:18.394Z,16.15
2018-12-06T02:49:52.237Z,17.23
2018-12-06T02:50:26.108Z,15.80
2018-12-06T02:50:59.924Z,16.45
2018-12-06T02:51:33.697Z,17.32
2018-12-06T02:52:07.676Z,14.98
2018-12-06T02:52:41.445Z,16.00
2018-12-06T02:53:15.482Z,19.42
2018-12-06T02:53:49.398Z,17.52
2018-12-06T02:54:23.328Z,15.58
2018-12-06T02:54:57.371Z,17.10
2018-12-06T02:55:31.233Z,19.02
2018-12-06T02:56:05.193Z,16.35
2018-12-06T02:56:39.014Z,19.40
2018-12-06T02:57:13.054Z,18.25
2018-12-06T02:57:47.001Z,16.70
2018-12-06T02:58:20.848Z,18.82
2018-12-06T02:58:54.658Z,22.35
2018-12-06T02:59:28.614Z,18.98
2018-12-06T03:00:02.826Z,17.75
2018-12-06T03:00:36.686Z,16.42
2018-12-06T03:01:10.616Z,18.30
2018-12-06T03:01:44.584Z,19.48
2018-12-06T03:02:18.462Z,19.20
2018-12-06T03:02:52.348Z,20.08
2018-12-06T03:03:26.178Z,20.48
2018-12-06T03:04:00.114Z,19.57
2018-12-06T03:04:34.104Z,17.12
2018-12-06T03:05:14.982Z,20.43
2018-12-06T03:05:48.891Z,18.77
2018-12-06T03:06:22.812Z,19.25
2018-12-06T03:06:56.729Z,18.35
2018-12-06T03:07:30.623Z,18.82
2018-12-06T03:08:04.323Z,21.42
2018-12-06T03:08:38.234Z,20.57
2018-12-06T03:09:12.192Z,19.75
2018-12-06T03:09:46.348Z,17.40
2018-12-06T03:10:20.201Z,21.97
2018-12-06T03:10:53.929Z,19.10
2018-12-06T03:11:27.842Z,21.07
2018-12-06T03:12:01.777Z,23.52
2018-12-06T03:12:35.693Z,20.60
2018-12-06T03:13:09.683Z,19.32
2018-12-06T03:13:43.526Z,23.25
2018-12-06T03:14:17.291Z,22.45
2018-12-06T03:14:51.227Z,18.70
2018-12-06T03:15:25.206Z,22.20
2018-12-06T03:15:59.261Z,19.17
2018-12-06T03:16:33.077Z,18.92
2018-12-06T03:17:07.078Z,21.02
2018-12-06T03:17:40.958Z,20.17
2018-12-06T03:18:14.828Z,20.40
2018-12-06T03:18:48.724Z,21.50
2018-12-06T03:19:22.511Z,21.82
2018-12-06T03:19:56.278Z,21.37
2018-12-06T03:20:30.272Z,20.70
2018-12-06T03:21:04.111Z,20.72
2018-12-06T03:21:37.939Z,17.00
2018-12-06T03:22:11.919Z,19.07
2018-12-06T03:22:46.073Z,22.58
2018-12-06T03:23:19.869Z,21.15
2018-12-06T03:23:53.735Z,19.05
2018-12-06T03:24:27.608Z,18.92
2018-12-06T03:25:01.564Z,18.98
2018-12-06T03:25:35.649Z,18.65
2018-12-06T03:26:09.723Z,20.23
2018-12-06T03:26:43.794Z,18.77
2018-12-06T03:27:17.783Z,21.55
2018-12-06T03:27:51.558Z,22.70
2018-12-06T03:28:25.427Z,18.65
2018-12-06T03:29:02.715Z,17.27
2018-12-06T03:29:36.771Z,18.48
2018-12-06T03:30:10.538Z,17.62
2018-12-06T03:30:44.351Z,20.20
2018-12-06T03:31:18.402Z,18.82
2018-12-06T03:31:52.411Z,20.97
2018-12-06T03:32:26.218Z,23.32
2018-12-06T03:33:00.290Z,20.15
2018-12-06T03:33:34.068Z,19.10
2018-12-06T03:34:07.898Z,18.27
2018-12-06T03:34:41.814Z,17.65
2018-12-06T03:35:15.568Z,19.73
2018-12-06T03:35:49.437Z,18.75
2018-12-06T03:36:23.444Z,19.77
2018-12-06T03:36:57.278Z,20.95
2018-12-06T03:37:31.082Z,22.13
2018-12-06T03:38:05.019Z,19.98
2018-12-06T03:38:38.926Z,21.05
2018-12-06T03:39:13.008Z,23.47
2018-12-06T03:39:46.850Z,19.37
2018-12-06T03:40:20.847Z,18.48
2018-12-06T03:40:54.603Z,23.65
2018-12-06T03:41:29.380Z,20.12
2018-12-06T03:42:03.247Z,20.12
2018-12-06T03:42:37.138Z,18.48
2018-12-06T03:43:11.150Z,22.42
2018-12-06T03:43:44.910Z,18.05
2018-12-06T03:44:18.730Z,22.13
2018-12-06T03:44:52.571Z,20.23
2018-12-06T03:45:26.934Z,21.23
2018-12-06T03:46:00.818Z,21.23
2018-12-06T03:46:34.641Z,19.35
2018-12-06T03:47:08.585Z,21.57
2018-12-06T03:47:42.453Z,21.33
2018-12-06T03:48:16.198Z,19.32
2018-12-06T03:48:50.105Z,19.37
2018-12-06T03:49:23.913Z,19.35
2018-12-06T03:49:57.855Z,19.73
2018-12-06T03:50:31.630Z,17.87
2018-12-06T03:51:05.417Z,20.32
2018-12-06T03:51:39.323Z,18.02
2018-12-06T03:52:13.276Z,19.57
2018-12-06T03:52:47.055Z,19.77
2018-12-06T03:53:20.948Z,20.88
2018-12-06T03:53:54.873Z,18.73
2018-12-06T03:54:28.795Z,19.65
2018-12-06T03:55:02.819Z,20.15
2018-12-06T03:55:36.790Z,19.20
2018-12-06T03:56:10.552Z,22.25
2018-12-06T03:56:44.378Z,19.05
2018-12-06T03:57:18.314Z,18.70
2018-12-06T03:57:52.238Z,18.20
2018-12-06T03:58:26.175Z,21.03
2018-12-06T03:58:59.964Z,18.90
2018-12-06T03:59:33.938Z,17.65
2018-12-06T04:00:08.150Z,20.32
2018-12-06T04:00:42.092Z,17.45
2018-12-06T04:01:56.730Z,17.00
2018-12-06T04:02:30.605Z,18.73
2018-12-06T04:03:04.335Z,20.88
2018-12-06T04:03:38.263Z,18.50
2018-12-06T04:04:12.359Z,18.02
2018-12-06T04:04:46.308Z,18.00
2018-12-06T04:05:22.410Z,19.48
2018-12-06T04:05:56.467Z,18.17
2018-12-06T04:06:30.345Z,20.55
2018-12-06T04:07:04.245Z,18.82
2018-12-06T04:07:38.173Z,18.02
2018-12-06T04:08:12.035Z,18.27
2018-12-06T04:08:45.881Z,23.27
2018-12-06T04:09:19.740Z,18.75
2018-12-06T04:09:53.618Z,22.30
2018-12-06T04:10:27.579Z,21.40
2018-12-06T04:11:01.546Z,19.00
2018-12-06T04:11:35.509Z,18.75
2018-12-06T04:12:10.391Z,17.92
2018-12-06T04:12:44.632Z,18.32
2018-12-06T04:13:18.493Z,17.45
2018-12-06T04:13:52.246Z,18.52
2018-12-06T04:14:26.119Z,18.42
2018-12-06T04:15:00.176Z,20.00
2018-12-06T04:15:34.296Z,18.12
2018-12-06T04:16:08.117Z,22.42
2018-12-06T04:16:41.907Z,20.55
2018-12-06T04:17:15.926Z,16.05
2018-12-06T04:17:49.674Z,21.77
2018-12-06T04:18:23.611Z,18.65
2018-12-06T04:18:58.452Z,20.30
2018-12-06T04:19:32.454Z,18.77
2018-12-06T04:20:06.565Z,18.35
2018-12-06T04:20:40.311Z,19.32
2018-12-06T04:21:15.932Z,17.40
2018-12-06T04:21:50.159Z,18.30
2018-12-06T04:22:24.382Z,19.12
2018-12-06T04:22:58.331Z,18.60
2018-12-06T04:23:32.104Z,18.57
2018-12-06T04:24:05.949Z,19.62
2018-12-06T04:24:39.897Z,18.17
2018-12-06T04:25:13.784Z,18.65
2018-12-06T04:25:47.542Z,19.45
2018-12-06T04:26:21.405Z,17.98
2018-12-06T04:26:55.318Z,19.98
2018-12-06T04:27:29.370Z,18.92
2018-12-06T04:28:03.364Z,17.90
2018-12-06T04:28:37.110Z,18.87
2018-12-06T04:29:11.274Z,18.57
2018-12-06T04:29:45.149Z,17.35
2018-12-06T04:30:18.936Z,18.10
2018-12-06T04:30:52.786Z,17.57
2018-12-06T04:31:26.650Z,19.10
2018-12-06T04:32:00.653Z,17.37
2018-12-06T04:32:34.596Z,20.27
2018-12-06T04:33:08.872Z,18.20
2018-12-06T04:33:42.779Z,19.27
2018-12-06T04:34:16.763Z,18.75
2018-12-06T04:34:50.728Z,19.70
2018-12-06T04:35:24.670Z,18.90
2018-12-06T04:35:58.373Z,17.75
2018-12-06T04:36:32.255Z,20.70
2018-12-06T04:37:06.184Z,19.98
2018-12-06T04:37:40.194Z,17.25
2018-12-06T04:38:14.128Z,17.80
2018-12-06T04:38:47.908Z,17.65
2018-12-06T04:39:22.042Z,16.17
2018-12-06T04:39:55.895Z,17.85
2018-12-06T04:40:29.770Z,17.40
2018-12-06T04:41:03.589Z,18.77
2018-12-06T04:41:37.395Z,18.00
2018-12-06T04:42:11.436Z,17.27
2018-12-06T04:42:45.361Z,16.00
2018-12-06T04:43:19.203Z,18.15
2018-12-06T04:43:53.212Z,17.52
2018-12-06T04:44:27.123Z,17.05
2018-12-06T04:45:01.192Z,20.08
2018-12-06T04:45:34.914Z,18.27
2018-12-06T04:46:08.887Z,19.95
2018-12-06T04:46:42.838Z,16.85
2018-12-06T04:47:16.573Z,16.52
2018-12-06T04:47:50.545Z,17.65
2018-12-06T04:48:24.215Z,17.62
2018-12-06T04:48:58.236Z,18.57
2018-12-06T04:49:32.189Z,18.30
2018-12-06T04:50:06.559Z,16.20
2018-12-06T04:50:40.466Z,17.87
2018-12-06T04:51:14.510Z,17.82
2018-12-06T04:51:48.292Z,18.20
2018-12-06T04:52:22.182Z,16.75
2018-12-06T04:52:56.335Z,17.70
2018-12-06T04:53:30.683Z,18.62
2018-12-06T04:54:04.580Z,16.27
2018-12-06T04:54:38.429Z,17.95
2018-12-06T04:55:12.542Z,17.98
2018-12-06T04:55:46.465Z,16.57
2018-12-06T04:56:20.497Z,19.37
2018-12-06T04:56:54.460Z,17.05
2018-12-06T04:57:28.384Z,17.12
2018-12-06T04:58:02.649Z,17.00
2018-12-06T04:58:36.541Z,16.70
2018-12-06T04:59:10.542Z,17.70
2018-12-06T04:59:44.481Z,17.30
2018-12-06T05:00:18.289Z,18.73
2018-12-06T05:00:52.237Z,16.60
2018-12-06T05:01:26.250Z,17.57
2018-12-06T05:02:00.185Z,18.87
2018-12-06T05:02:34.114Z,17.57
2018-12-06T05:03:08.047Z,16.55
2018-12-06T05:03:41.982Z,15.88
2018-12-06T05:04:16.187Z,16.32
2018-12-06T05:04:49.924Z,15.98
2018-12-06T05:05:23.753Z,16.90
2018-12-06T05:05:57.695Z,17.32
2018-12-06T05:06:31.790Z,18.87
2018-12-06T05:07:05.870Z,15.95
2018-12-06T05:07:40.193Z,16.87
2018-12-06T05:08:14.980Z,16.00
2018-12-06T05:08:48.910Z,19.90
2018-12-06T05:09:23.344Z,16.25
2018-12-06T05:09:57.208Z,18.23
2018-12-06T05:10:31.127Z,16.93
2018-12-06T05:11:05.143Z,15.45
2018-12-06T05:11:38.830Z,17.95
2018-12-06T05:12:12.810Z,16.15
2018-12-06T05:12:46.558Z,15.95
2018-12-06T05:13:20.479Z,17.30
2018-12-06T05:13:54.518Z,17.35
2018-12-06T05:14:28.483Z,18.07
2018-12-06T05:15:02.596Z,15.53
2018-12-06T05:15:36.338Z,17.48
2018-12-06T05:16:14.122Z,16.37
2018-12-06T05:16:48.204Z,18.12
2018-12-06T05:17:22.084Z,18.35
2018-12-06T05:17:56.076Z,16.73
2018-12-06T05:18:29.994Z,18.30
2018-12-06T05:20:20.543Z,19.13
2018-12-06T05:20:54.409Z,16.77
2018-12-06T05:21:28.247Z,18.82
2018-12-06T05:22:02.139Z,17.90
2018-12-06T05:22:36.032Z,16.50
2018-12-06T05:23:09.761Z,17.87
2018-12-06T05:23:43.754Z,22.05
2018-12-06T05:24:17.705Z,20.00
2018-12-06T05:24:51.769Z,18.87
2018-12-06T05:25:25.714Z,16.67
2018-12-06T05:25:59.589Z,19.73
2018-12-06T05:26:33.471Z,16.57
2018-12-06T05:27:07.506Z,17.70
2018-12-06T05:27:41.990Z,17.65
2018-12-06T05:28:16.078Z,20.25
2018-12-06T05:28:50.066Z,21.55
2018-12-06T05:29:24.576Z,16.77
2018-12-06T05:29:59.154Z,16.67
2018-12-06T05:30:33.095Z,20.52
2018-12-06T05:31:07.508Z,16.67
2018-12-06T05:31:41.702Z,18.65
2018-12-06T05:32:15.555Z,18.32
2018-12-06T05:32:49.466Z,16.42
2018-12-06T05:33:23.626Z,17.82
2018-12-06T05:33:57.563Z,16.50
2018-12-06T05:34:31.504Z,17.65
2018-12-06T05:35:06.162Z,20.17
2018-12-06T05:35:40.171Z,18.35
2018-12-06T05:36:14.554Z,17.40
2018-12-06T05:36:48.412Z,18.42
2018-12-06T05:37:22.414Z,16.82
2018-12-06T05:37:56.854Z,15.57
2018-12-06T05:38:31.339Z,18.02
2018-12-06T05:39:06.780Z,17.67
2018-12-06T05:39:40.899Z,16.70
2018-12-06T05:40:15.344Z,20.20
2018-12-06T05:40:49.317Z,16.60
2018-12-06T05:41:23.274Z,20.15
2018-12-06T05:41:57.150Z,19.25
2018-12-06T05:42:30.996Z,16.80
2018-12-06T05:43:05.121Z,17.95
2018-12-06T05:43:38.950Z,18.75
2018-12-06T05:44:12.835Z,17.25
2018-12-06T05:44:46.865Z,20.17
2018-12-06T05:45:20.742Z,19.70
2018-12-06T05:45:54.687Z,20.48
2018-12-06T05:46:28.559Z,18.15
2018-12-06T05:47:03.233Z,21.45
2018-12-06T05:47:37.203Z,19.42
2018-12-06T05:48:10.989Z,20.50
2018-12-06T05:48:44.930Z,17.90
2018-12-06T05:49:18.887Z,18.70
2018-12-06T05:49:52.843Z,16.90
2018-12-06T05:50:26.689Z,19.12
2018-12-06T05:51:01.371Z,18.42
2018-12-06T05:51:35.200Z,19.40
2018-12-06T05:52:08.951Z,18.48
2018-12-06T05:52:42.901Z,18.30
2018-12-06T05:53:16.766Z,18.42
2018-12-06T05:53:51.142Z,18.65
2018-12-06T05:54:25.042Z,17.82
2018-12-06T05:54:58.941Z,21.30
2018-12-06T05:55:32.834Z,19.42
2018-12-06T05:56:06.865Z,22.05
2018-12-06T05:56:40.899Z,17.98
2018-12-06T05:57:14.857Z,23.25
2018-12-06T05:57:48.719Z,18.27
2018-12-06T05:58:22.954Z,18.87
2018-12-06T05:58:56.729Z,19.98
2018-12-06T05:59:30.887Z,20.43
2018-12-06T06:00:47.686Z,22.30
2018-12-06T06:01:22.118Z,18.17
2018-12-06T06:01:56.062Z,17.55
2018-12-06T06:02:30.882Z,19.05
2018-12-06T06:03:04.919Z,21.45
2018-12-06T06:03:38.815Z,19.98
2018-12-06T06:04:12.732Z,19.75
2018-12-06T06:04:46.701Z,21.20
2018-12-06T06:05:21.272Z,20.35
2018-12-06T06:05:55.207Z,20.25
2018-12-06T06:06:29.102Z,19.37
2018-12-06T06:07:02.916Z,20.52
2018-12-06T06:07:36.998Z,20.23
2018-12-06T06:08:10.904Z,19.73
2018-12-06T06:08:45.089Z,25.00
2018-12-06T06:09:19.105Z,19.62
2018-12-06T06:09:53.126Z,18.55
2018-12-06T06:10:26.807Z,17.50
2018-12-06T06:11:01.341Z,19.20
2018-12-06T06:11:35.163Z,20.90
2018-12-06T06:12:10.250Z,18.57
2018-12-06T06:12:44.400Z,22.65
2018-12-06T06:13:18.368Z,21.05
2018-12-06T06:13:52.365Z,18.30
2018-12-06T06:14:26.728Z,19.75
2018-12-06T06:15:01.074Z,19.40
2018-12-06T06:15:37.147Z,19.52
2018-12-06T06:16:11.696Z,20.90
2018-12-06T06:16:45.753Z,21.90
2018-12-06T06:17:19.714Z,21.97
2018-12-06T06:17:53.630Z,24.70
2018-12-06T06:18:28.458Z,20.27
2018-12-06T06:19:02.267Z,23.45
2018-12-06T06:19:36.453Z,18.55
2018-12-06T06:20:10.552Z,18.52
2018-12-06T06:20:44.495Z,21.97
2018-12-06T06:21:18.206Z,20.10
2018-12-06T06:21:52.124Z,18.35
2018-12-06T06:22:25.946Z,17.02
2018-12-06T06:22:59.861Z,22.30
2018-12-06T06:23:34.018Z,19.05
2018-12-06T06:24:07.898Z,22.05
2018-12-06T06:24:41.897Z,20.20
2018-12-06T06:25:15.716Z,18.98
2018-12-06T06:25:49.622Z,18.60
2018-12-06T06:26:23.602Z,20.17
2018-12-06T06:26:57.592Z,18.60
2018-12-06T06:27:31.366Z,23.57
2018-12-06T06:28:05.310Z,21.50
2018-12-06T06:28:39.295Z,21.12
2018-12-06T06:29:13.307Z,20.55
2018-12-06T06:29:47.359Z,22.60
2018-12-06T06:30:21.118Z,20.82
2018-12-06T06:30:55.114Z,20.32
2018-12-06T06:31:29.015Z,18.67
2018-12-06T06:32:02.771Z,19.00
2018-12-06T06:32:36.810Z,20.00
2018-12-06T06:33:11.400Z,18.07
2018-12-06T06:33:45.143Z,18.75
2018-12-06T06:34:19.114Z,18.87
2018-12-06T06:34:53.021Z,21.50
2018-12-06T06:35:27.251Z,18.75
2018-12-06T06:36:01.180Z,18.90
2018-12-06T06:36:35.206Z,19.05
2018-12-06T06:37:09.067Z,17.73
2018-12-06T06:37:42.907Z,18.67
2018-12-06T06:38:16.773Z,21.10
2018-12-06T06:38:50.653Z,20.70
2018-12-06T06:39:24.538Z,20.60
2018-12-06T06:39:58.417Z,20.50
2018-12-06T06:40:32.224Z,19.00
2018-12-06T06:41:06.031Z,17.55
2018-12-06T06:41:39.956Z,21.70
2018-12-06T06:42:13.702Z,18.55
2018-12-06T06:42:47.605Z,20.85
2018-12-06T06:43:21.665Z,19.62
2018-12-06T06:43:55.766Z,22.50
2018-12-06T06:44:29.736Z,20.10
2018-12-06T06:45:04.185Z,21.90
2018-12-06T06:45:38.102Z,19.02
2018-12-06T06:46:12.226Z,19.70
2018-12-06T06:46:45.958Z,19.77
2018-12-06T06:47:19.823Z,20.52
2018-12-06T06:47:53.672Z,19.45
2018-12-06T06:48:27.603Z,18.77
2018-12-06T06:49:01.634Z,16.73
2018-12-06T06:49:35.571Z,18.63
2018-12-06T06:50:09.507Z,21.27
2018-12-06T06:50:43.339Z,20.57
2018-12-06T06:51:17.651Z,21.35
2018-12-06T06:51:51.511Z,19.20
2018-12-06T06:52:25.566Z,19.35
2018-12-06T06:52:59.430Z,17.70
2018-12-06T06:53:33.297Z,22.35
2018-12-06T06:54:07.286Z,19.05
2018-12-06T06:54:41.010Z,17.80
2018-12-06T06:55:14.880Z,19.62
2018-12-06T06:55:48.593Z,23.22
2018-12-06T06:56:22.451Z,20.17
2018-12-06T06:56:56.309Z,19.03
2018-12-06T06:57:30.326Z,20.62
2018-12-06T06:58:04.390Z,21.55
2018-12-06T06:58:38.103Z,22.42
2018-12-06T06:59:11.978Z,20.92
2018-12-06T06:59:46.109Z,20.12
2018-12-06T07:00:20.075Z,20.55
2018-12-06T07:00:53.935Z,19.62
2018-12-06T07:01:27.816Z,20.60
2018-12-06T07:02:01.722Z,19.77
2018-12-06T07:02:35.651Z,20.65
2018-12-06T07:03:09.647Z,17.45
2018-12-06T07:03:44.007Z,16.97
2018-12-06T07:04:18.109Z,19.33
2018-12-06T07:04:52.176Z,17.40
2018-12-06T07:05:26.239Z,17.10
2018-12-06T07:06:00.186Z,20.25
2018-12-06T07:06:34.096Z,17.97
2018-12-06T07:07:08.038Z,17.40
2018-12-06T07:07:41.882Z,21.77
2018-12-06T07:08:15.637Z,17.98
2018-12-06T07:08:49.503Z,21.27
2018-12-06T07:09:23.417Z,16.43
2018-12-06T07:09:57.272Z,19.40
2018-12-06T07:10:31.261Z,20.80
2018-12-06T07:11:05.206Z,17.48
2018-12-06T07:11:39.223Z,20.40
2018-12-06T07:12:12.994Z,18.85
2018-12-06T07:12:46.934Z,19.02
2018-12-06T07:13:20.811Z,17.95
2018-12-06T07:13:54.647Z,16.37
2018-12-06T07:14:28.521Z,19.27
2018-12-06T07:15:02.672Z,17.82
2018-12-06T07:15:36.682Z,17.07
2018-12-06T07:16:10.376Z,20.32
2018-12-06T07:16:44.318Z,18.95
2018-12-06T07:17:18.157Z,18.98
2018-12-06T07:17:52.115Z,18.00
2018-12-06T07:18:25.914Z,19.70
2018-12-06T07:18:59.797Z,16.32
2018-12-06T07:19:33.567Z,17.73
2018-12-06T07:20:07.566Z,19.20
2018-12-06T07:20:41.478Z,17.27
2018-12-06T07:21:15.371Z,17.97
2018-12-06T07:21:49.250Z,17.97